createdAt,value
2022-09-15T00:01:01.721Z,24.02
2022-09-15T00:03:29.132Z,23.96
2022-09-15T00:05:56.207Z,24.01
2022-09-15T00:08:24.428Z,23.98
2022-09-15T00:10:54.824Z,23.91
2022-09-15T00:13:22.799Z,23.85
2022-09-15T00:15:50.331Z,23.87
2022-09-15T00:18:17.859Z,23.87
2022-09-15T00:20:45.806Z,23.83
2022-09-15T00:23:14.824Z,23.90
2022-09-15T00:25:53.324Z,23.95
2022-09-15T00:28:22.425Z,23.89
2022-09-15T00:30:52.559Z,23.94
2022-09-15T00:33:21.344Z,24.04
2022-09-15T00:35:50.121Z,24.08
2022-09-15T00:38:18.603Z,24.15
2022-09-15T00:40:52.066Z,24.22
2022-09-15T00:43:21.971Z,24.18
2022-09-15T00:45:49.349Z,24.27
2022-09-15T00:48:21.636Z,24.27
2022-09-15T00:50:55.708Z,24.31
2022-09-15T00:53:24.419Z,24.33
2022-09-15T00:55:52.519Z,24.28
2022-09-15T00:58:33.082Z,24.33
2022-09-15T01:01:03.273Z,24.21
2022-09-15T01:03:33.308Z,24.17
2022-09-15T01:06:08.537Z,24.25
2022-09-15T01:08:58.783Z,24.21
2022-09-15T01:11:26.040Z,24.21
2022-09-15T01:13:53.101Z,24.21
2022-09-15T01:16:41.850Z,24.27
2022-09-15T01:19:41.863Z,24.24
2022-09-15T01:22:27.423Z,24.34
2022-09-15T01:25:03.550Z,24.40
2022-09-15T01:27:43.188Z,24.41
2022-09-15T01:30:15.141Z,24.11
2022-09-15T01:33:06.751Z,23.88
2022-09-15T01:35:56.308Z,24.05
2022-09-15T01:38:49.219Z,24.17
2022-09-15T01:41:40.734Z,24.18
2022-09-15T01:44:15.755Z,23.86
2022-09-15T01:46:47.786Z,23.88
2022-09-15T01:49:18.727Z,23.92
2022-09-15T01:51:48.595Z,24.01
2022-09-15T01:54:19.553Z,24.00
2022-09-15T01:56:46.953Z,24.03
2022-09-15T01:59:14.118Z,24.15
2022-09-15T02:01:54.365Z,24.20
2022-09-15T02:04:33.512Z,24.27
2022-09-15T02:07:12.182Z,24.29
2022-09-15T02:10:00.942Z,24.35
2022-09-15T02:12:39.584Z,24.36
2022-09-15T02:15:12.179Z,24.38
2022-09-15T02:17:45.733Z,24.42
2022-09-15T02:20:33.206Z,24.41
2022-09-15T02:23:09.731Z,24.41
2022-09-15T02:25:51.708Z,24.37
2022-09-15T02:28:25.707Z,24.13
2022-09-15T02:30:55.459Z,23.87
2022-09-15T02:33:25.022Z,23.88
2022-09-15T02:35:53.040Z,23.73
2022-09-15T02:38:20.449Z,23.68
2022-09-15T02:40:48.179Z,23.84
2022-09-15T02:43:17.874Z,23.86
2022-09-15T02:45:45.989Z,23.86
2022-09-15T02:48:13.609Z,23.94
2022-09-15T02:50:41.365Z,24.08
2022-09-15T02:53:09.018Z,24.13
2022-09-15T02:55:36.304Z,24.24
2022-09-15T02:58:03.917Z,24.24
2022-09-15T03:00:31.766Z,24.24
2022-09-15T03:02:58.883Z,24.22
2022-09-15T03:05:28.893Z,24.22
2022-09-15T03:07:57.249Z,24.26
2022-09-15T03:10:25.220Z,24.26
2022-09-15T03:12:53.813Z,24.31
2022-09-15T03:15:23.647Z,24.29
2022-09-15T03:17:51.394Z,24.21
2022-09-15T03:20:23.812Z,24.17
2022-09-15T03:22:51.307Z,24.15
2022-09-15T03:25:18.909Z,24.11
2022-09-15T03:27:46.171Z,24.03
2022-09-15T03:30:14.303Z,23.95
2022-09-15T03:32:41.492Z,23.92
2022-09-15T03:35:09.044Z,23.95
2022-09-15T03:37:36.437Z,23.98
2022-09-15T03:40:04.055Z,24.01
2022-09-15T03:42:31.472Z,24.02
2022-09-15T03:44:58.613Z,24.11
2022-09-15T03:47:25.972Z,24.14
2022-09-15T03:49:53.044Z,24.09
2022-09-15T03:52:20.090Z,24.10
2022-09-15T03:54:48.887Z,24.08
2022-09-15T03:57:16.044Z,24.01
2022-09-15T03:59:43.192Z,24.05
2022-09-15T04:02:10.261Z,24.10
2022-09-15T04:04:37.373Z,24.14
2022-09-15T04:07:04.593Z,24.15
2022-09-15T04:09:31.774Z,24.20
2022-09-15T04:11:58.800Z,24.23
2022-09-15T04:14:25.983Z,24.22
2022-09-15T04:16:53.077Z,24.21
2022-09-15T04:19:20.344Z,24.24
2022-09-15T04:21:48.211Z,24.23
2022-09-15T04:24:15.840Z,24.29
2022-09-15T04:26:42.952Z,24.28
2022-09-15T04:29:16.477Z,24.25
2022-09-15T04:31:43.900Z,24.30
2022-09-15T04:34:11.029Z,24.30
2022-09-15T04:36:38.414Z,24.31
2022-09-15T04:39:06.770Z,24.28
2022-09-15T04:41:34.067Z,24.31
2022-09-15T04:44:01.467Z,24.31
2022-09-15T04:46:28.545Z,24.35
2022-09-15T04:48:56.512Z,24.32
2022-09-15T04:51:24.505Z,24.19
2022-09-15T04:53:52.234Z,24.22
2022-09-15T04:56:22.053Z,24.22
2022-09-15T04:59:03.188Z,24.24
2022-09-15T05:01:34.589Z,24.25
2022-09-15T05:04:04.175Z,24.32
2022-09-15T05:06:32.276Z,24.17
2022-09-15T05:08:59.349Z,24.27
2022-09-15T05:11:27.274Z,24.32
2022-09-15T05:13:55.083Z,24.31
2022-09-15T05:16:25.067Z,24.21
2022-09-15T05:18:54.076Z,24.13
2022-09-15T05:21:23.102Z,24.14
2022-09-15T05:23:52.129Z,24.16
2022-09-15T05:26:22.695Z,24.07
2022-09-15T05:28:50.289Z,24.03
2022-09-15T05:31:25.878Z,24.02
2022-09-15T05:33:53.746Z,23.97
2022-09-15T05:36:25.263Z,24.03
2022-09-15T05:38:54.301Z,24.07
2022-09-15T05:41:21.597Z,24.03
2022-09-15T05:43:50.882Z,24.00
2022-09-15T05:46:19.462Z,23.99
2022-09-15T05:48:47.187Z,23.91
2022-09-15T05:51:14.876Z,23.89
2022-09-15T05:53:42.491Z,23.92
2022-09-15T05:56:14.727Z,24.04
2022-09-15T05:58:43.868Z,24.13
2022-09-15T06:01:20.719Z,24.16
2022-09-15T06:03:48.833Z,24.19
2022-09-15T06:06:16.060Z,24.14
2022-09-15T06:08:47.976Z,24.19
2022-09-15T06:11:18.050Z,24.12
2022-09-15T06:13:46.794Z,24.16
2022-09-15T06:16:18.396Z,24.21
2022-09-15T06:18:46.918Z,24.27
2022-09-15T06:21:28.101Z,24.35
2022-09-15T06:23:57.505Z,24.44
2022-09-15T06:26:27.390Z,24.50
2022-09-15T06:28:58.808Z,24.57
2022-09-15T06:31:28.279Z,24.66
2022-09-15T06:33:57.853Z,24.73
2022-09-15T06:36:27.541Z,24.81
2022-09-15T06:38:55.171Z,24.86
2022-09-15T06:41:22.575Z,24.90
2022-09-15T06:43:49.916Z,24.96
2022-09-15T06:46:20.008Z,24.99
2022-09-15T06:48:48.763Z,25.02
2022-09-15T06:51:17.976Z,25.11
2022-09-15T06:53:46.231Z,25.17
2022-09-15T06:56:21.780Z,25.23
2022-09-15T06:58:49.427Z,25.25
2022-09-15T07:01:28.143Z,25.27
2022-09-15T07:03:58.456Z,25.30
2022-09-15T07:06:28.886Z,25.40
2022-09-15T07:08:56.762Z,25.54
2022-09-15T07:11:24.401Z,25.76
2022-09-15T07:13:52.320Z,25.90
2022-09-15T07:16:20.759Z,26.07
2022-09-15T07:18:49.252Z,26.27
2022-09-15T07:21:18.621Z,26.40
2022-09-15T07:23:47.054Z,26.61
2022-09-15T07:26:23.096Z,26.82
2022-09-15T07:28:54.393Z,27.05
2022-09-15T07:31:23.680Z,27.14
2022-09-15T07:33:51.466Z,27.30
2022-09-15T07:36:18.637Z,27.48
2022-09-15T07:38:48.453Z,27.68
2022-09-15T07:41:27.062Z,27.76
2022-09-15T07:43:58.515Z,27.94
2022-09-15T07:46:27.377Z,28.12
2022-09-15T07:48:56.611Z,28.40
2022-09-15T07:51:25.176Z,28.69
2022-09-15T07:53:53.419Z,28.96
2022-09-15T07:56:21.646Z,29.13
2022-09-15T07:58:49.900Z,29.44
2022-09-15T08:01:19.095Z,29.59
2022-09-15T08:03:49.123Z,29.82
2022-09-15T08:06:21.836Z,30.00
2022-09-15T08:08:50.307Z,30.09
2022-09-15T08:11:19.282Z,30.24
2022-09-15T08:13:47.804Z,30.34
2022-09-15T08:16:18.146Z,30.51
2022-09-15T08:18:45.576Z,30.60
2022-09-15T08:21:20.416Z,30.76
2022-09-15T08:23:56.188Z,30.93
2022-09-15T08:26:24.166Z,31.03
2022-09-15T08:28:51.366Z,31.16
2022-09-15T08:31:18.596Z,31.26
2022-09-15T08:33:50.952Z,31.40
2022-09-15T08:36:18.574Z,31.50
2022-09-15T08:38:46.081Z,31.52
2022-09-15T08:41:24.568Z,31.63
2022-09-15T08:43:58.544Z,31.75
2022-09-15T08:46:51.844Z,31.80
2022-09-15T08:49:47.432Z,31.76
2022-09-15T08:52:30.747Z,31.94
2022-09-15T08:55:01.132Z,31.96
2022-09-15T08:57:28.379Z,31.97
2022-09-15T08:59:55.667Z,32.03
2022-09-15T09:02:49.201Z,32.08
2022-09-15T09:05:29.521Z,32.22
2022-09-15T09:08:27.144Z,32.34
2022-09-15T09:11:11.332Z,32.38
2022-09-15T09:14:09.817Z,32.48
2022-09-15T09:16:58.380Z,32.37
2022-09-15T09:19:46.568Z,32.50
2022-09-15T09:22:21.986Z,32.54
2022-09-15T09:24:53.438Z,32.64
2022-09-15T09:27:25.084Z,32.76
2022-09-15T09:30:02.680Z,32.74
2022-09-15T09:32:41.084Z,32.89
2022-09-15T09:35:34.697Z,32.90
2022-09-15T09:38:02.598Z,32.91
2022-09-15T09:40:31.760Z,32.98
2022-09-15T09:43:01.102Z,33.12
2022-09-15T09:45:28.256Z,33.12
2022-09-15T09:48:02.324Z,33.10
2022-09-15T09:50:39.089Z,33.14
2022-09-15T09:53:33.055Z,33.18
2022-09-15T09:56:13.150Z,33.19
2022-09-15T09:58:40.225Z,33.17
2022-09-15T10:01:19.636Z,33.25
2022-09-15T10:03:46.938Z,33.26
2022-09-15T10:06:17.474Z,33.22
2022-09-15T10:09:00.189Z,33.32
2022-09-15T10:11:46.853Z,33.43
2022-09-15T10:14:36.481Z,33.35
2022-09-15T10:17:09.686Z,33.41
2022-09-15T10:19:56.897Z,33.48
2022-09-15T10:22:33.019Z,33.53
2022-09-15T10:25:02.128Z,33.57
2022-09-15T10:27:36.967Z,33.62
2022-09-15T10:30:24.668Z,33.40
2022-09-15T10:32:51.808Z,33.44
2022-09-15T10:35:20.780Z,33.41
2022-09-15T10:38:12.111Z,33.44
2022-09-15T10:40:52.125Z,33.48
2022-09-15T10:43:52.924Z,33.50
2022-09-15T10:46:45.145Z,33.43
2022-09-15T10:49:34.824Z,33.52
2022-09-15T10:52:11.750Z,33.63
2022-09-15T10:54:57.619Z,33.71
2022-09-15T10:57:24.832Z,33.81
2022-09-15T11:00:10.282Z,33.78
2022-09-15T11:03:09.802Z,33.68
2022-09-15T11:05:42.673Z,33.44
2022-09-15T11:08:40.035Z,33.53
2022-09-15T11:11:16.120Z,33.51
2022-09-15T11:13:58.989Z,33.50
2022-09-15T11:16:44.113Z,33.55
2022-09-15T11:19:48.275Z,33.56
2022-09-15T11:22:24.765Z,33.67
2022-09-15T11:24:58.836Z,33.73
2022-09-15T11:27:40.100Z,33.70
2022-09-15T11:30:22.192Z,33.63
2022-09-15T11:33:02.524Z,33.58
2022-09-15T11:35:50.359Z,33.56
2022-09-15T11:38:18.263Z,33.55
2022-09-15T11:40:52.081Z,33.63
2022-09-15T11:43:30.080Z,33.78
2022-09-15T11:45:59.615Z,33.57
2022-09-15T11:48:55.478Z,33.40
2022-09-15T11:51:25.603Z,33.44
2022-09-15T11:54:06.229Z,33.44
2022-09-15T11:56:46.669Z,33.45
2022-09-15T11:59:28.853Z,33.65
2022-09-15T12:02:05.813Z,33.82
2022-09-15T12:04:57.961Z,33.88
2022-09-15T12:07:30.950Z,33.70
2022-09-15T12:10:14.376Z,33.72
2022-09-15T12:12:43.964Z,33.87
2022-09-15T12:15:16.700Z,33.87
2022-09-15T12:17:52.456Z,33.81
2022-09-15T12:20:32.424Z,33.90
2022-09-15T12:23:16.436Z,34.02
2022-09-15T12:25:46.576Z,33.97
2022-09-15T12:28:22.871Z,34.06
2022-09-15T12:31:10.953Z,34.02
2022-09-15T12:33:45.164Z,33.96
2022-09-15T12:36:37.178Z,33.88
2022-09-15T12:39:29.988Z,33.80
2022-09-15T12:42:10.829Z,33.81
2022-09-15T12:44:40.748Z,33.80
2022-09-15T12:47:22.721Z,33.63
2022-09-15T12:49:52.867Z,33.59
2022-09-15T12:52:22.607Z,33.37
2022-09-15T12:54:56.771Z,33.41
2022-09-15T12:57:29.357Z,33.28
2022-09-15T13:00:22.475Z,33.21
2022-09-15T13:02:53.014Z,33.20
2022-09-15T13:05:41.995Z,33.12
2022-09-15T13:08:34.757Z,33.08
2022-09-15T13:11:34.885Z,32.89
2022-09-15T13:14:07.951Z,32.88
2022-09-15T13:16:45.754Z,32.83
2022-09-15T13:19:18.751Z,32.71
2022-09-15T13:22:10.952Z,32.66
2022-09-15T13:24:47.040Z,32.54
2022-09-15T13:27:19.286Z,32.59
2022-09-15T13:29:50.947Z,32.56
2022-09-15T13:32:48.512Z,32.59
2022-09-15T13:35:41.659Z,32.55
2022-09-15T13:38:19.951Z,32.61
2022-09-15T13:41:24.372Z,32.54
2022-09-15T13:44:06.054Z,32.53
2022-09-15T13:46:42.018Z,32.49
2022-09-15T13:49:12.460Z,32.44
2022-09-15T13:51:43.980Z,32.25
2022-09-15T13:54:19.616Z,32.20
2022-09-15T13:56:53.293Z,32.29
2022-09-15T13:59:28.229Z,32.27
2022-09-15T14:01:56.969Z,32.22
2022-09-15T14:04:28.067Z,32.37
2022-09-15T14:07:00.211Z,32.49
2022-09-15T14:09:38.715Z,32.58
2022-09-15T14:12:12.165Z,32.61
2022-09-15T14:14:47.100Z,32.53
2022-09-15T14:17:30.300Z,32.48
2022-09-15T14:20:01.479Z,32.50
2022-09-15T14:22:33.944Z,32.39
2022-09-15T14:25:08.237Z,32.37
2022-09-15T14:27:36.732Z,32.33
2022-09-15T14:30:07.633Z,32.36
2022-09-15T14:32:44.038Z,32.30
2022-09-15T14:35:19.769Z,32.32
2022-09-15T14:37:57.008Z,32.25
2022-09-15T14:40:38.462Z,32.35
2022-09-15T14:43:25.891Z,32.24
2022-09-15T14:45:56.676Z,32.24
2022-09-15T14:48:28.353Z,32.24
2022-09-15T14:51:03.437Z,32.24
2022-09-15T14:53:35.493Z,32.17
2022-09-15T14:56:08.713Z,32.14
2022-09-15T14:58:38.845Z,32.15
2022-09-15T15:01:15.922Z,32.11
2022-09-15T15:03:49.651Z,32.02
2022-09-15T15:06:35.077Z,32.07
2022-09-15T15:09:22.513Z,32.06
2022-09-15T15:11:58.747Z,32.02
2022-09-15T15:14:26.198Z,31.96
2022-09-15T15:17:02.564Z,31.98
2022-09-15T15:19:35.467Z,31.89
2022-09-15T15:22:11.904Z,31.86
2022-09-15T15:24:44.994Z,31.93
2022-09-15T15:27:25.475Z,31.81
2022-09-15T15:29:52.997Z,31.83
2022-09-15T15:32:22.405Z,31.86
2022-09-15T15:35:01.416Z,31.89
2022-09-15T15:37:34.078Z,31.86
2022-09-15T15:40:08.121Z,31.93
2022-09-15T15:42:35.465Z,31.93
2022-09-15T15:45:23.110Z,31.92
2022-09-15T15:47:50.339Z,31.86
2022-09-15T15:50:26.268Z,31.80
2022-09-15T15:52:53.392Z,31.76
2022-09-15T15:55:26.951Z,31.77
2022-09-15T15:57:56.030Z,31.69
2022-09-15T16:00:36.863Z,31.58
2022-09-15T16:03:05.335Z,31.50
2022-09-15T16:05:34.084Z,31.40
2022-09-15T16:08:07.484Z,31.34
2022-09-15T16:10:40.438Z,31.22
2022-09-15T16:13:07.616Z,31.19
2022-09-15T16:15:34.833Z,31.06
2022-09-15T16:18:01.964Z,30.94
2022-09-15T16:20:30.681Z,30.93
2022-09-15T16:22:57.863Z,30.80
2022-09-15T16:25:34.301Z,30.67
2022-09-15T16:28:02.792Z,30.67
2022-09-15T16:30:30.389Z,30.60
2022-09-15T16:32:57.706Z,30.51
2022-09-15T16:35:33.675Z,30.51
2022-09-15T16:38:01.049Z,30.51
2022-09-15T16:40:28.586Z,30.51
2022-09-15T16:42:55.684Z,30.46
2022-09-15T16:45:43.497Z,30.45
2022-09-15T16:48:11.270Z,30.43
2022-09-15T16:50:42.632Z,30.43
2022-09-15T16:53:18.879Z,30.36
2022-09-15T16:55:51.646Z,30.21
2022-09-15T16:58:20.311Z,30.29
2022-09-15T17:00:50.090Z,30.33
2022-09-15T17:03:19.618Z,30.31
2022-09-15T17:05:58.900Z,30.32
2022-09-15T17:08:29.677Z,30.29
2022-09-15T17:10:58.585Z,30.22
2022-09-15T17:13:30.316Z,30.29
2022-09-15T17:15:59.271Z,30.18
2022-09-15T17:18:27.519Z,30.05
2022-09-15T17:20:54.807Z,29.95
2022-09-15T17:23:37.084Z,29.90
2022-09-15T17:26:12.125Z,29.79
2022-09-15T17:28:39.704Z,29.74
2022-09-15T17:31:13.389Z,29.69
2022-09-15T17:33:40.847Z,29.53
2022-09-15T17:36:08.468Z,29.61
2022-09-15T17:38:35.753Z,29.39
2022-09-15T17:41:03.211Z,29.38
2022-09-15T17:43:31.386Z,29.32
2022-09-15T17:45:58.847Z,29.29
2022-09-15T17:48:26.236Z,29.22
2022-09-15T17:50:53.333Z,29.20
2022-09-15T17:53:22.872Z,29.22
2022-09-15T17:55:50.940Z,29.22
2022-09-15T17:58:18.886Z,29.28
2022-09-15T18:00:47.756Z,29.28
2022-09-15T18:03:18.099Z,29.08
2022-09-15T18:05:45.410Z,29.16
2022-09-15T18:08:13.084Z,29.15
2022-09-15T18:10:40.261Z,29.18
2022-09-15T18:13:07.571Z,29.30
2022-09-15T18:15:35.288Z,29.32
2022-09-15T18:18:08.477Z,29.38
2022-09-15T18:20:36.830Z,29.31
2022-09-15T18:23:04.045Z,29.29
2022-09-15T18:25:34.628Z,29.29
2022-09-15T18:28:03.053Z,29.21
2022-09-15T18:30:33.123Z,29.13
2022-09-15T18:33:00.245Z,29.10
2022-09-15T18:35:27.420Z,29.05
2022-09-15T18:37:57.812Z,28.99
2022-09-15T18:40:27.090Z,28.86
2022-09-15T18:42:56.565Z,28.70
2022-09-15T18:45:23.717Z,28.64
2022-09-15T18:47:52.328Z,28.49
2022-09-15T18:50:22.287Z,28.46
2022-09-15T18:52:50.213Z,28.43
2022-09-15T18:55:22.519Z,28.39
2022-09-15T18:57:49.790Z,28.23
2022-09-15T19:00:20.484Z,28.06
2022-09-15T19:02:47.890Z,27.86
2022-09-15T19:05:16.764Z,27.64
2022-09-15T19:07:45.436Z,27.61
2022-09-15T19:10:14.719Z,27.66
2022-09-15T19:12:42.057Z,27.50
2022-09-15T19:15:11.540Z,27.53
2022-09-15T19:17:39.600Z,27.60
2022-09-15T19:20:09.117Z,27.60
2022-09-15T19:22:36.657Z,27.58
2022-09-15T19:25:05.757Z,27.46
2022-09-15T19:27:32.855Z,27.43
2022-09-15T19:30:00.639Z,27.39
2022-09-15T19:32:27.919Z,27.36
2022-09-15T19:34:55.007Z,27.32
2022-09-15T19:37:23.411Z,27.37
2022-09-15T19:39:50.755Z,27.39
2022-09-15T19:42:18.037Z,27.38
2022-09-15T19:44:45.268Z,27.44
2022-09-15T19:47:12.453Z,27.43
2022-09-15T19:49:39.527Z,27.42
2022-09-15T19:52:06.661Z,27.39
2022-09-15T19:54:34.695Z,27.37
2022-09-15T19:57:02.346Z,27.33
2022-09-15T19:59:48.320Z,27.26
2022-09-15T20:02:15.664Z,27.32
2022-09-15T20:04:43.289Z,27.35
2022-09-15T20:07:10.609Z,27.25
2022-09-15T20:09:39.527Z,27.38
2022-09-15T20:12:07.044Z,27.46
2022-09-15T20:14:34.386Z,27.56
2022-09-15T20:17:02.019Z,27.55
2022-09-15T20:19:30.045Z,27.48
2022-09-15T20:21:57.280Z,27.53
2022-09-15T20:24:25.035Z,27.58
2022-09-15T20:26:52.313Z,27.53
2022-09-15T20:29:20.501Z,27.47
2022-09-15T20:31:47.748Z,27.46
2022-09-15T20:34:15.348Z,27.38
2022-09-15T20:36:42.646Z,27.24
2022-09-15T20:39:13.506Z,27.27
2022-09-15T20:41:45.108Z,27.25
2022-09-15T20:44:12.639Z,27.26
2022-09-15T20:46:40.003Z,27.22
2022-09-15T20:49:07.221Z,27.23
2022-09-15T20:51:34.816Z,27.14
2022-09-15T20:54:04.411Z,27.20
2022-09-15T20:56:35.092Z,27.17
2022-09-15T20:59:04.501Z,27.09
2022-09-15T21:01:37.198Z,27.00
2022-09-15T21:04:06.083Z,26.91
2022-09-15T21:06:34.097Z,26.86
2022-09-15T21:09:01.371Z,26.83
2022-09-15T21:11:30.216Z,26.90
2022-09-15T21:13:57.636Z,26.85
2022-09-15T21:16:27.950Z,26.89
2022-09-15T21:18:57.505Z,26.88
2022-09-15T21:21:30.306Z,26.82
2022-09-15T21:24:01.848Z,26.85
2022-09-15T21:26:31.238Z,26.86
2022-09-15T21:28:58.747Z,26.89
2022-09-15T21:31:31.098Z,26.90
2022-09-15T21:33:59.321Z,26.97
2022-09-15T21:36:29.828Z,27.03
2022-09-15T21:38:58.402Z,26.98
2022-09-15T21:41:29.976Z,26.98
2022-09-15T21:43:58.477Z,27.00
2022-09-15T21:46:28.097Z,27.09
2022-09-15T21:48:57.609Z,27.06
2022-09-15T21:51:26.887Z,26.99
2022-09-15T21:53:55.763Z,27.00
2022-09-15T21:56:24.008Z,26.88
2022-09-15T21:58:51.293Z,26.88
2022-09-15T22:01:23.903Z,26.88
2022-09-15T22:03:53.367Z,26.96
2022-09-15T22:06:22.677Z,26.88
2022-09-15T22:08:49.930Z,26.86
2022-09-15T22:11:17.077Z,26.94
2022-09-15T22:13:44.855Z,27.01
2022-09-15T22:16:23.533Z,27.07
2022-09-15T22:18:51.277Z,27.06
2022-09-15T22:21:19.759Z,27.10
2022-09-15T22:23:48.956Z,27.16
2022-09-15T22:26:21.619Z,27.09
2022-09-15T22:28:49.070Z,27.14
2022-09-15T22:31:18.691Z,26.95
2022-09-15T22:33:46.516Z,26.81
2022-09-15T22:36:27.936Z,26.69
2022-09-15T22:38:56.666Z,26.70
2022-09-15T22:41:27.381Z,26.70
2022-09-15T22:43:54.520Z,26.71
2022-09-15T22:46:21.870Z,26.72
2022-09-15T22:48:49.923Z,26.68
2022-09-15T22:51:17.194Z,26.73
2022-09-15T22:53:44.343Z,26.73
2022-09-15T22:56:19.957Z,26.55
2022-09-15T22:58:49.691Z,26.51
2022-09-15T23:01:20.252Z,26.41
2022-09-15T23:03:51.828Z,26.21
2022-09-15T23:06:20.210Z,26.13
2022-09-15T23:08:55.378Z,26.10
2022-09-15T23:11:23.442Z,25.95
2022-09-15T23:13:50.579Z,25.88
2022-09-15T23:16:17.845Z,25.92
2022-09-15T23:18:45.459Z,25.95
2022-09-15T23:21:13.620Z,25.97
2022-09-15T23:23:43.329Z,26.00
2022-09-15T23:26:12.408Z,26.01
2022-09-15T23:28:39.972Z,26.06
2022-09-15T23:31:10.103Z,26.13
2022-09-15T23:33:37.870Z,26.16
2022-09-15T23:36:07.633Z,26.18
2022-09-15T23:38:39.995Z,26.20
2022-09-15T23:41:08.286Z,26.21
2022-09-15T23:43:35.951Z,26.16
2022-09-15T23:46:04.301Z,26.24
2022-09-15T23:48:34.648Z,26.30
2022-09-15T23:51:02.050Z,26.29
2022-09-15T23:53:29.972Z,26.21
2022-09-15T23:55:57.193Z,26.29
2022-09-15T23:58:24.846Z,26.34
